sensor_id;sensor_type;location;lat;lon;timestamp;temperature;humidity
14122;DHT22;7139;48.114;11.442;2022-09-09T00:02:18;15.90;99.90
14122;DHT22;7139;48.114;11.442;2022-09-09T00:04:53;15.90;99.90
14122;DHT22;7139;48.114;11.442;2022-09-09T00:07:27;16.00;99.90
14122;DHT22;7139;48.114;11.442;2022-09-09T00:10:03;15.90;99.90
14122;DHT22;7139;48.114;11.442;2022-09-09T00:12:34;15.90;99.90
14122;DHT22;7139;48.114;11.442;2022-09-09T00:15:10;15.90;99.90
14122;DHT22;7139;48.114;11.442;2022-09-09T00:17:43;15.90;99.90
14122;DHT22;7139;48.114;11.442;2022-09-09T00:20:16;15.90;99.90
14122;DHT22;7139;48.114;11.442;2022-09-09T00:22:47;15.90;99.90
14122;DHT22;7139;48.114;11.442;2022-09-09T00:25:23;15.90;99.90
14122;DHT22;7139;48.114;11.442;2022-09-09T00:27:53;15.90;99.90
14122;DHT22;7139;48.114;11.442;2022-09-09T00:30:23;15.90;99.90
14122;DHT22;7139;48.114;11.442;2022-09-09T00:32:53;15.90;99.90
14122;DHT22;7139;48.114;11.442;2022-09-09T00:35:28;15.90;99.90
14122;DHT22;7139;48.114;11.442;2022-09-09T00:38:00;15.90;99.90
14122;DHT22;7139;48.114;11.442;2022-09-09T00:40:33;15.90;99.90
14122;DHT22;7139;48.114;11.442;2022-09-09T00:43:18;15.90;99.90
14122;DHT22;7139;48.114;11.442;2022-09-09T00:46:11;15.90;99.90
14122;DHT22;7139;48.114;11.442;2022-09-09T00:48:48;15.80;99.90
14122;DHT22;7139;48.114;11.442;2022-09-09T00:51:27;15.80;99.90
14122;DHT22;7139;48.114;11.442;2022-09-09T00:54:24;15.80;99.90
14122;DHT22;7139;48.114;11.442;2022-09-09T00:57:03;15.80;99.90
14122;DHT22;7139;48.114;11.442;2022-09-09T00:59:35;15.80;99.90
14122;DHT22;7139;48.114;11.442;2022-09-09T01:02:08;15.70;99.90
14122;DHT22;7139;48.114;11.442;2022-09-09T01:04:40;15.70;99.90
14122;DHT22;7139;48.114;11.442;2022-09-09T01:07:16;15.70;99.90
14122;DHT22;7139;48.114;11.442;2022-09-09T01:09:51;15.70;99.90
14122;DHT22;7139;48.114;11.442;2022-09-09T01:12:26;15.70;99.90
14122;DHT22;7139;48.114;11.442;2022-09-09T01:15:00;15.70;99.90
14122;DHT22;7139;48.114;11.442;2022-09-09T01:17:33;15.70;99.90
14122;DHT22;7139;48.114;11.442;2022-09-09T01:20:10;15.70;99.90
14122;DHT22;7139;48.114;11.442;2022-09-09T01:22:47;15.70;99.90
14122;DHT22;7139;48.114;11.442;2022-09-09T01:25:28;15.70;99.90
14122;DHT22;7139;48.114;11.442;2022-09-09T01:27:59;15.70;99.90
14122;DHT22;7139;48.114;11.442;2022-09-09T01:30:28;15.60;99.90
14122;DHT22;7139;48.114;11.442;2022-09-09T01:32:57;15.60;99.90
14122;DHT22;7139;48.114;11.442;2022-09-09T01:35:42;15.60;99.90
14122;DHT22;7139;48.114;11.442;2022-09-09T01:38:11;15.70;99.90
14122;DHT22;7139;48.114;11.442;2022-09-09T01:40:38;15.60;99.90
14122;DHT22;7139;48.114;11.442;2022-09-09T01:43:07;15.60;99.90
14122;DHT22;7139;48.114;11.442;2022-09-09T01:45:34;15.60;99.90
14122;DHT22;7139;48.114;11.442;2022-09-09T01:48:01;15.60;99.90
14122;DHT22;7139;48.114;11.442;2022-09-09T01:50:29;15.60;99.90
14122;DHT22;7139;48.114;11.442;2022-09-09T01:52:58;15.50;99.90
14122;DHT22;7139;48.114;11.442;2022-09-09T01:55:29;15.50;99.90
14122;DHT22;7139;48.114;11.442;2022-09-09T01:58:09;15.50;99.90
14122;DHT22;7139;48.114;11.442;2022-09-09T02:00:41;15.50;99.90
14122;DHT22;7139;48.114;11.442;2022-09-09T02:03:18;15.50;99.90
14122;DHT22;7139;48.114;11.442;2022-09-09T02:05:51;15.50;99.90
14122;DHT22;7139;48.114;11.442;2022-09-09T02:08:24;15.50;99.90
14122;DHT22;7139;48.114;11.442;2022-09-09T02:10:56;15.50;99.90
14122;DHT22;7139;48.114;11.442;2022-09-09T02:13:29;15.50;99.90
14122;DHT22;7139;48.114;11.442;2022-09-09T02:16:03;15.50;99.90
14122;DHT22;7139;48.114;11.442;2022-09-09T02:18:35;15.50;99.90
14122;DHT22;7139;48.114;11.442;2022-09-09T02:21:03;15.40;99.90
14122;DHT22;7139;48.114;11.442;2022-09-09T02:23:32;15.40;99.90
14122;DHT22;7139;48.114;11.442;2022-09-09T02:26:00;15.40;99.90
14122;DHT22;7139;48.114;11.442;2022-09-09T02:28:32;15.40;99.90
14122;DHT22;7139;48.114;11.442;2022-09-09T02:30:59;15.40;99.90
14122;DHT22;7139;48.114;11.442;2022-09-09T02:33:29;15.40;99.90
14122;DHT22;7139;48.114;11.442;2022-09-09T02:35:58;15.30;99.90
14122;DHT22;7139;48.114;11.442;2022-09-09T02:38:30;15.30;99.90
14122;DHT22;7139;48.114;11.442;2022-09-09T02:41:00;15.30;99.90
14122;DHT22;7139;48.114;11.442;2022-09-09T02:43:32;15.30;99.90
14122;DHT22;7139;48.114;11.442;2022-09-09T02:46:04;15.30;99.90
14122;DHT22;7139;48.114;11.442;2022-09-09T02:48:40;15.30;99.90
14122;DHT22;7139;48.114;11.442;2022-09-09T02:51:17;15.30;99.90
14122;DHT22;7139;48.114;11.442;2022-09-09T02:53:51;15.30;99.90
14122;DHT22;7139;48.114;11.442;2022-09-09T02:56:22;15.20;99.90
14122;DHT22;7139;48.114;11.442;2022-09-09T02:58:52;15.20;99.90
14122;DHT22;7139;48.114;11.442;2022-09-09T03:01:20;15.20;99.90
14122;DHT22;7139;48.114;11.442;2022-09-09T03:03:47;15.10;99.90
14122;DHT22;7139;48.114;11.442;2022-09-09T03:06:14;15.10;99.90
14122;DHT22;7139;48.114;11.442;2022-09-09T03:08:41;15.20;99.90
14122;DHT22;7139;48.114;11.442;2022-09-09T03:11:08;15.10;99.90
14122;DHT22;7139;48.114;11.442;2022-09-09T03:13:35;15.10;99.90
14122;DHT22;7139;48.114;11.442;2022-09-09T03:16:05;15.10;99.90
14122;DHT22;7139;48.114;11.442;2022-09-09T03:18:31;15.10;99.90
14122;DHT22;7139;48.114;11.442;2022-09-09T03:20:59;15.10;99.90
14122;DHT22;7139;48.114;11.442;2022-09-09T03:23:26;15.10;99.90
14122;DHT22;7139;48.114;11.442;2022-09-09T03:25:53;15.10;99.90
14122;DHT22;7139;48.114;11.442;2022-09-09T03:28:22;15.00;99.90
14122;DHT22;7139;48.114;11.442;2022-09-09T03:30:58;15.00;99.90
14122;DHT22;7139;48.114;11.442;2022-09-09T03:33:27;15.00;99.90
14122;DHT22;7139;48.114;11.442;2022-09-09T03:35:55;15.10;99.90
14122;DHT22;7139;48.114;11.442;2022-09-09T03:38:22;15.00;99.90
14122;DHT22;7139;48.114;11.442;2022-09-09T03:40:50;15.00;99.90
14122;DHT22;7139;48.114;11.442;2022-09-09T03:43:17;15.00;99.90
14122;DHT22;7139;48.114;11.442;2022-09-09T03:45:45;15.00;99.90
14122;DHT22;7139;48.114;11.442;2022-09-09T03:48:13;15.00;99.90
14122;DHT22;7139;48.114;11.442;2022-09-09T03:50:45;14.90;99.90
14122;DHT22;7139;48.114;11.442;2022-09-09T03:53:12;14.90;99.90
14122;DHT22;7139;48.114;11.442;2022-09-09T03:55:43;14.90;99.90
14122;DHT22;7139;48.114;11.442;2022-09-09T04:00:38;14.90;99.90
14122;DHT22;7139;48.114;11.442;2022-09-09T04:03:07;14.90;99.90
14122;DHT22;7139;48.114;11.442;2022-09-09T04:05:34;14.90;99.90
14122;DHT22;7139;48.114;11.442;2022-09-09T04:08:06;14.90;99.90
14122;DHT22;7139;48.114;11.442;2022-09-09T04:10:34;15.00;99.90
14122;DHT22;7139;48.114;11.442;2022-09-09T04:13:02;14.90;99.90
14122;DHT22;7139;48.114;11.442;2022-09-09T04:15:30;15.00;99.90
14122;DHT22;7139;48.114;11.442;2022-09-09T04:17:56;15.00;99.90
14122;DHT22;7139;48.114;11.442;2022-09-09T04:20:23;15.00;99.90
14122;DHT22;7139;48.114;11.442;2022-09-09T04:22:50;15.00;99.90
14122;DHT22;7139;48.114;11.442;2022-09-09T04:25:18;15.00;99.90
14122;DHT22;7139;48.114;11.442;2022-09-09T04:27:45;15.00;99.90
14122;DHT22;7139;48.114;11.442;2022-09-09T04:30:13;17.10;99.90
14122;DHT22;7139;48.114;11.442;2022-09-09T04:32:39;21.70;99.90
14122;DHT22;7139;48.114;11.442;2022-09-09T04:35:07;23.70;96.60
14122;DHT22;7139;48.114;11.442;2022-09-09T04:37:34;23.80;94.40
14122;DHT22;7139;48.114;11.442;2022-09-09T04:40:01;23.20;94.60
14122;DHT22;7139;48.114;11.442;2022-09-09T04:42:29;22.00;95.80
14122;DHT22;7139;48.114;11.442;2022-09-09T04:44:56;20.80;97.30
14122;DHT22;7139;48.114;11.442;2022-09-09T04:47:22;19.80;98.60
14122;DHT22;7139;48.114;11.442;2022-09-09T04:49:49;18.90;99.90
14122;DHT22;7139;48.114;11.442;2022-09-09T04:52:17;18.20;99.90
14122;DHT22;7139;48.114;11.442;2022-09-09T04:54:43;17.70;99.90
14122;DHT22;7139;48.114;11.442;2022-09-09T04:57:11;17.20;99.90
14122;DHT22;7139;48.114;11.442;2022-09-09T04:59:39;16.80;99.90
14122;DHT22;7139;48.114;11.442;2022-09-09T05:02:05;16.40;99.90
14122;DHT22;7139;48.114;11.442;2022-09-09T05:04:32;16.20;99.90
14122;DHT22;7139;48.114;11.442;2022-09-09T05:06:59;16.00;99.90
14122;DHT22;7139;48.114;11.442;2022-09-09T05:09:26;15.80;99.90
14122;DHT22;7139;48.114;11.442;2022-09-09T05:11:53;15.60;99.90
14122;DHT22;7139;48.114;11.442;2022-09-09T05:14:20;15.50;99.90
14122;DHT22;7139;48.114;11.442;2022-09-09T05:16:49;15.40;99.90
14122;DHT22;7139;48.114;11.442;2022-09-09T05:19:16;15.30;99.90
14122;DHT22;7139;48.114;11.442;2022-09-09T05:21:45;15.20;99.90
14122;DHT22;7139;48.114;11.442;2022-09-09T05:24:12;15.20;99.90
14122;DHT22;7139;48.114;11.442;2022-09-09T05:26:38;15.10;99.90
14122;DHT22;7139;48.114;11.442;2022-09-09T05:29:05;15.00;99.90
14122;DHT22;7139;48.114;11.442;2022-09-09T05:31:34;15.00;99.90
14122;DHT22;7139;48.114;11.442;2022-09-09T05:34:02;15.00;99.90
14122;DHT22;7139;48.114;11.442;2022-09-09T05:36:28;15.00;99.90
14122;DHT22;7139;48.114;11.442;2022-09-09T05:38:55;15.00;99.90
14122;DHT22;7139;48.114;11.442;2022-09-09T05:41:22;15.00;99.90
14122;DHT22;7139;48.114;11.442;2022-09-09T05:43:49;15.00;99.90
14122;DHT22;7139;48.114;11.442;2022-09-09T05:46:18;15.00;99.90
14122;DHT22;7139;48.114;11.442;2022-09-09T05:48:46;15.00;99.90
14122;DHT22;7139;48.114;11.442;2022-09-09T05:51:16;15.10;99.90
14122;DHT22;7139;48.114;11.442;2022-09-09T05:53:43;15.10;99.90
14122;DHT22;7139;48.114;11.442;2022-09-09T05:56:12;15.10;99.90
14122;DHT22;7139;48.114;11.442;2022-09-09T05:58:40;15.10;99.90
14122;DHT22;7139;48.114;11.442;2022-09-09T06:01:11;15.20;99.90
14122;DHT22;7139;48.114;11.442;2022-09-09T06:03:39;15.20;99.90
14122;DHT22;7139;48.114;11.442;2022-09-09T06:06:08;15.20;99.90
14122;DHT22;7139;48.114;11.442;2022-09-09T06:08:38;15.30;99.90
14122;DHT22;7139;48.114;11.442;2022-09-09T06:11:07;15.30;99.90
14122;DHT22;7139;48.114;11.442;2022-09-09T06:13:34;15.30;99.90
14122;DHT22;7139;48.114;11.442;2022-09-09T06:16:03;15.30;99.90
14122;DHT22;7139;48.114;11.442;2022-09-09T06:18:30;15.40;99.90
14122;DHT22;7139;48.114;11.442;2022-09-09T06:20:57;15.40;99.90
14122;DHT22;7139;48.114;11.442;2022-09-09T06:23:26;15.40;99.90
14122;DHT22;7139;48.114;11.442;2022-09-09T06:26:03;15.50;99.90
14122;DHT22;7139;48.114;11.442;2022-09-09T06:28:31;15.50;99.90
14122;DHT22;7139;48.114;11.442;2022-09-09T06:30:58;15.50;99.90
14122;DHT22;7139;48.114;11.442;2022-09-09T06:33:25;15.60;99.90
14122;DHT22;7139;48.114;11.442;2022-09-09T06:35:53;15.60;99.90
14122;DHT22;7139;48.114;11.442;2022-09-09T06:38:20;15.70;99.90
14122;DHT22;7139;48.114;11.442;2022-09-09T06:40:51;15.70;99.90
14122;DHT22;7139;48.114;11.442;2022-09-09T06:43:21;15.80;99.90
14122;DHT22;7139;48.114;11.442;2022-09-09T06:45:55;15.80;99.90
14122;DHT22;7139;48.114;11.442;2022-09-09T06:48:23;15.80;99.90
14122;DHT22;7139;48.114;11.442;2022-09-09T06:50:51;15.80;99.90
14122;DHT22;7139;48.114;11.442;2022-09-09T06:53:26;15.90;99.90
14122;DHT22;7139;48.114;11.442;2022-09-09T06:55:53;15.90;99.90
14122;DHT22;7139;48.114;11.442;2022-09-09T06:58:21;15.90;99.90
14122;DHT22;7139;48.114;11.442;2022-09-09T07:00:48;15.90;99.90
14122;DHT22;7139;48.114;11.442;2022-09-09T07:03:15;15.90;99.90
14122;DHT22;7139;48.114;11.442;2022-09-09T07:05:42;15.90;99.90
14122;DHT22;7139;48.114;11.442;2022-09-09T07:08:10;15.90;99.90
14122;DHT22;7139;48.114;11.442;2022-09-09T07:10:37;16.00;99.90
14122;DHT22;7139;48.114;11.442;2022-09-09T07:13:04;16.00;99.90
14122;DHT22;7139;48.114;11.442;2022-09-09T07:15:32;16.00;99.90
14122;DHT22;7139;48.114;11.442;2022-09-09T07:18:01;16.00;99.90
14122;DHT22;7139;48.114;11.442;2022-09-09T07:20:28;16.10;99.90
14122;DHT22;7139;48.114;11.442;2022-09-09T07:22:55;16.10;99.90
14122;DHT22;7139;48.114;11.442;2022-09-09T07:25:24;16.20;99.90
14122;DHT22;7139;48.114;11.442;2022-09-09T07:27:56;16.30;99.90
14122;DHT22;7139;48.114;11.442;2022-09-09T07:30:23;16.30;99.90
14122;DHT22;7139;48.114;11.442;2022-09-09T07:32:52;16.40;99.90
14122;DHT22;7139;48.114;11.442;2022-09-09T07:35:19;16.50;99.90
14122;DHT22;7139;48.114;11.442;2022-09-09T07:37:45;16.60;99.90
14122;DHT22;7139;48.114;11.442;2022-09-09T07:40:12;16.70;99.90
14122;DHT22;7139;48.114;11.442;2022-09-09T07:42:39;16.70;99.90
14122;DHT22;7139;48.114;11.442;2022-09-09T07:45:06;16.70;99.90
14122;DHT22;7139;48.114;11.442;2022-09-09T07:47:32;16.80;99.90
14122;DHT22;7139;48.114;11.442;2022-09-09T07:50:01;16.90;99.90
14122;DHT22;7139;48.114;11.442;2022-09-09T07:52:28;16.90;99.90
14122;DHT22;7139;48.114;11.442;2022-09-09T07:54:54;17.00;99.90
14122;DHT22;7139;48.114;11.442;2022-09-09T07:57:22;17.10;99.90
14122;DHT22;7139;48.114;11.442;2022-09-09T07:59:49;17.10;99.90
14122;DHT22;7139;48.114;11.442;2022-09-09T08:02:16;17.10;99.90
14122;DHT22;7139;48.114;11.442;2022-09-09T08:04:42;17.10;99.90
14122;DHT22;7139;48.114;11.442;2022-09-09T08:07:10;17.20;99.90
14122;DHT22;7139;48.114;11.442;2022-09-09T08:09:37;17.30;99.90
14122;DHT22;7139;48.114;11.442;2022-09-09T08:12:04;17.30;99.90
14122;DHT22;7139;48.114;11.442;2022-09-09T08:14:32;17.30;99.90
14122;DHT22;7139;48.114;11.442;2022-09-09T08:16:58;17.30;99.90
14122;DHT22;7139;48.114;11.442;2022-09-09T08:19:25;17.30;99.90
14122;DHT22;7139;48.114;11.442;2022-09-09T08:21:54;17.40;99.90
14122;DHT22;7139;48.114;11.442;2022-09-09T08:24:22;17.40;99.90
14122;DHT22;7139;48.114;11.442;2022-09-09T08:26:49;17.40;99.90
14122;DHT22;7139;48.114;11.442;2022-09-09T08:29:16;17.40;99.90
14122;DHT22;7139;48.114;11.442;2022-09-09T08:31:44;17.40;99.90
14122;DHT22;7139;48.114;11.442;2022-09-09T08:34:12;17.40;99.90
14122;DHT22;7139;48.114;11.442;2022-09-09T08:36:40;17.40;99.90
14122;DHT22;7139;48.114;11.442;2022-09-09T08:39:10;17.30;99.90
14122;DHT22;7139;48.114;11.442;2022-09-09T08:44:39;17.20;99.90
14122;DHT22;7139;48.114;11.442;2022-09-09T08:47:15;17.20;99.90
14122;DHT22;7139;48.114;11.442;2022-09-09T08:49:58;17.20;99.90
14122;DHT22;7139;48.114;11.442;2022-09-09T08:52:30;17.30;99.90
14122;DHT22;7139;48.114;11.442;2022-09-09T08:55:03;17.30;99.90
14122;DHT22;7139;48.114;11.442;2022-09-09T08:57:32;17.40;99.90
14122;DHT22;7139;48.114;11.442;2022-09-09T09:00:00;17.40;99.90
14122;DHT22;7139;48.114;11.442;2022-09-09T09:02:34;17.50;99.90
14122;DHT22;7139;48.114;11.442;2022-09-09T09:05:17;17.60;99.90
14122;DHT22;7139;48.114;11.442;2022-09-09T09:07:58;17.60;99.90
14122;DHT22;7139;48.114;11.442;2022-09-09T09:10:37;17.60;99.90
14122;DHT22;7139;48.114;11.442;2022-09-09T09:13:13;17.60;99.90
14122;DHT22;7139;48.114;11.442;2022-09-09T09:15:42;17.60;99.90
14122;DHT22;7139;48.114;11.442;2022-09-09T09:18:12;17.60;99.90
14122;DHT22;7139;48.114;11.442;2022-09-09T09:20:49;17.60;99.90
14122;DHT22;7139;48.114;11.442;2022-09-09T09:23:22;17.60;99.90
14122;DHT22;7139;48.114;11.442;2022-09-09T09:25:51;17.70;99.90
14122;DHT22;7139;48.114;11.442;2022-09-09T09:28:24;17.80;99.90
14122;DHT22;7139;48.114;11.442;2022-09-09T09:30:55;17.80;99.90
14122;DHT22;7139;48.114;11.442;2022-09-09T09:33:26;17.90;99.90
14122;DHT22;7139;48.114;11.442;2022-09-09T09:35:54;17.90;99.90
14122;DHT22;7139;48.114;11.442;2022-09-09T09:38:22;17.90;99.90
14122;DHT22;7139;48.114;11.442;2022-09-09T09:40:51;17.90;99.90
14122;DHT22;7139;48.114;11.442;2022-09-09T09:43:26;17.90;99.90
14122;DHT22;7139;48.114;11.442;2022-09-09T09:45:53;17.90;99.90
14122;DHT22;7139;48.114;11.442;2022-09-09T09:48:20;17.90;99.90
14122;DHT22;7139;48.114;11.442;2022-09-09T09:50:50;17.90;99.90
14122;DHT22;7139;48.114;11.442;2022-09-09T09:53:21;17.80;99.90
14122;DHT22;7139;48.114;11.442;2022-09-09T09:55:54;17.80;99.90
14122;DHT22;7139;48.114;11.442;2022-09-09T09:58:22;17.80;99.90
14122;DHT22;7139;48.114;11.442;2022-09-09T10:00:51;17.80;99.90
14122;DHT22;7139;48.114;11.442;2022-09-09T10:03:22;17.70;99.90
14122;DHT22;7139;48.114;11.442;2022-09-09T10:05:50;17.70;99.90
14122;DHT22;7139;48.114;11.442;2022-09-09T10:08:17;17.70;99.90
14122;DHT22;7139;48.114;11.442;2022-09-09T10:11:02;17.70;99.90
14122;DHT22;7139;48.114;11.442;2022-09-09T10:13:41;17.70;99.90
14122;DHT22;7139;48.114;11.442;2022-09-09T10:16:23;17.70;99.90
14122;DHT22;7139;48.114;11.442;2022-09-09T10:18:58;17.70;99.90
14122;DHT22;7139;48.114;11.442;2022-09-09T10:21:45;17.80;99.90
14122;DHT22;7139;48.114;11.442;2022-09-09T10:24:27;17.80;99.90
14122;DHT22;7139;48.114;11.442;2022-09-09T10:27:01;17.90;99.90
14122;DHT22;7139;48.114;11.442;2022-09-09T10:29:57;17.90;99.90
14122;DHT22;7139;48.114;11.442;2022-09-09T10:32:37;18.00;99.90
14122;DHT22;7139;48.114;11.442;2022-09-09T10:35:20;18.00;99.90
14122;DHT22;7139;48.114;11.442;2022-09-09T10:38:13;18.10;99.90
14122;DHT22;7139;48.114;11.442;2022-09-09T10:40:59;18.10;99.90
14122;DHT22;7139;48.114;11.442;2022-09-09T10:43:42;18.20;99.90
14122;DHT22;7139;48.114;11.442;2022-09-09T10:46:21;18.30;99.90
14122;DHT22;7139;48.114;11.442;2022-09-09T10:49:01;18.30;99.90
14122;DHT22;7139;48.114;11.442;2022-09-09T10:51:37;18.40;99.90
14122;DHT22;7139;48.114;11.442;2022-09-09T10:54:34;18.40;99.90
14122;DHT22;7139;48.114;11.442;2022-09-09T10:57:07;18.50;99.90
14122;DHT22;7139;48.114;11.442;2022-09-09T10:59:40;18.60;99.90
14122;DHT22;7139;48.114;11.442;2022-09-09T11:02:15;18.70;99.90
14122;DHT22;7139;48.114;11.442;2022-09-09T11:04:47;18.90;99.90
14122;DHT22;7139;48.114;11.442;2022-09-09T11:07:21;19.10;99.90
14122;DHT22;7139;48.114;11.442;2022-09-09T11:09:55;19.30;99.90
14122;DHT22;7139;48.114;11.442;2022-09-09T11:12:25;19.50;99.90
14122;DHT22;7139;48.114;11.442;2022-09-09T11:14:57;19.60;99.90
14122;DHT22;7139;48.114;11.442;2022-09-09T11:17:31;19.80;99.90
14122;DHT22;7139;48.114;11.442;2022-09-09T11:20:00;19.90;99.90
14122;DHT22;7139;48.114;11.442;2022-09-09T11:22:30;20.00;99.90
14122;DHT22;7139;48.114;11.442;2022-09-09T11:25:01;20.00;99.90
14122;DHT22;7139;48.114;11.442;2022-09-09T11:27:35;20.10;99.90
14122;DHT22;7139;48.114;11.442;2022-09-09T11:30:18;20.20;99.90
14122;DHT22;7139;48.114;11.442;2022-09-09T11:36:10;20.30;99.90
14122;DHT22;7139;48.114;11.442;2022-09-09T11:38:45;20.20;99.90
14122;DHT22;7139;48.114;11.442;2022-09-09T11:41:12;20.10;99.90
14122;DHT22;7139;48.114;11.442;2022-09-09T11:43:42;20.10;99.90
14122;DHT22;7139;48.114;11.442;2022-09-09T11:46:10;20.00;99.90
14122;DHT22;7139;48.114;11.442;2022-09-09T11:48:40;19.90;99.90
14122;DHT22;7139;48.114;11.442;2022-09-09T11:51:11;19.90;99.90
14122;DHT22;7139;48.114;11.442;2022-09-09T11:53:48;19.90;99.90
14122;DHT22;7139;48.114;11.442;2022-09-09T11:56:26;19.80;99.90
14122;DHT22;7139;48.114;11.442;2022-09-09T11:58:59;19.80;99.90
14122;DHT22;7139;48.114;11.442;2022-09-09T12:01:36;19.80;99.90
14122;DHT22;7139;48.114;11.442;2022-09-09T12:04:29;19.70;99.90
14122;DHT22;7139;48.114;11.442;2022-09-09T12:07:00;19.70;99.90
14122;DHT22;7139;48.114;11.442;2022-09-09T12:09:33;19.70;99.90
14122;DHT22;7139;48.114;11.442;2022-09-09T12:12:32;19.80;99.90
14122;DHT22;7139;48.114;11.442;2022-09-09T12:15:18;19.90;99.90
14122;DHT22;7139;48.114;11.442;2022-09-09T12:17:48;19.90;99.90
14122;DHT22;7139;48.114;11.442;2022-09-09T12:20:17;20.00;99.90
14122;DHT22;7139;48.114;11.442;2022-09-09T12:23:05;20.00;99.90
14122;DHT22;7139;48.114;11.442;2022-09-09T12:25:46;20.20;99.90
14122;DHT22;7139;48.114;11.442;2022-09-09T12:28:17;20.40;99.90
14122;DHT22;7139;48.114;11.442;2022-09-09T12:30:49;20.60;99.90
14122;DHT22;7139;48.114;11.442;2022-09-09T12:33:19;20.70;99.90
14122;DHT22;7139;48.114;11.442;2022-09-09T12:35:52;20.70;99.60
14122;DHT22;7139;48.114;11.442;2022-09-09T12:38:27;20.60;99.90
14122;DHT22;7139;48.114;11.442;2022-09-09T12:40:57;20.60;99.90
14122;DHT22;7139;48.114;11.442;2022-09-09T12:43:26;20.50;99.50
14122;DHT22;7139;48.114;11.442;2022-09-09T12:45:56;20.40;99.30
14122;DHT22;7139;48.114;11.442;2022-09-09T12:48:30;20.30;99.30
14122;DHT22;7139;48.114;11.442;2022-09-09T12:50:57;20.20;99.80
14122;DHT22;7139;48.114;11.442;2022-09-09T12:53:29;20.10;99.90
14122;DHT22;7139;48.114;11.442;2022-09-09T12:56:00;20.20;99.90
14122;DHT22;7139;48.114;11.442;2022-09-09T12:58:29;20.10;99.90
14122;DHT22;7139;48.114;11.442;2022-09-09T13:00:59;20.00;99.50
14122;DHT22;7139;48.114;11.442;2022-09-09T13:03:26;20.00;99.90
14122;DHT22;7139;48.114;11.442;2022-09-09T13:05:57;20.00;99.90
14122;DHT22;7139;48.114;11.442;2022-09-09T13:08:27;20.10;99.90
14122;DHT22;7139;48.114;11.442;2022-09-09T13:10:57;20.10;99.90
14122;DHT22;7139;48.114;11.442;2022-09-09T13:13:27;20.00;99.90
14122;DHT22;7139;48.114;11.442;2022-09-09T13:15:56;20.00;99.90
14122;DHT22;7139;48.114;11.442;2022-09-09T13:18:27;20.10;99.90
14122;DHT22;7139;48.114;11.442;2022-09-09T13:20:55;20.20;99.90
14122;DHT22;7139;48.114;11.442;2022-09-09T13:23:28;20.30;99.90
14122;DHT22;7139;48.114;11.442;2022-09-09T13:25:56;20.30;99.90
14122;DHT22;7139;48.114;11.442;2022-09-09T13:28:25;20.30;99.80
14122;DHT22;7139;48.114;11.442;2022-09-09T13:30:59;20.20;99.90
14122;DHT22;7139;48.114;11.442;2022-09-09T13:33:31;20.20;99.90
14122;DHT22;7139;48.114;11.442;2022-09-09T13:36:00;20.20;99.90
14122;DHT22;7139;48.114;11.442;2022-09-09T13:38:32;20.10;99.90
14122;DHT22;7139;48.114;11.442;2022-09-09T13:41:01;20.00;99.80
14122;DHT22;7139;48.114;11.442;2022-09-09T13:43:36;19.90;99.90
14122;DHT22;7139;48.114;11.442;2022-09-09T13:46:05;19.70;99.90
14122;DHT22;7139;48.114;11.442;2022-09-09T13:48:54;19.70;99.90
14122;DHT22;7139;48.114;11.442;2022-09-09T13:51:32;19.70;99.90
14122;DHT22;7139;48.114;11.442;2022-09-09T13:54:00;19.60;99.90
14122;DHT22;7139;48.114;11.442;2022-09-09T13:56:27;19.50;99.90
14122;DHT22;7139;48.114;11.442;2022-09-09T13:58:54;19.50;99.90
14122;DHT22;7139;48.114;11.442;2022-09-09T14:01:23;19.40;99.90
14122;DHT22;7139;48.114;11.442;2022-09-09T14:03:50;19.40;99.90
14122;DHT22;7139;48.114;11.442;2022-09-09T14:06:18;19.40;99.90
14122;DHT22;7139;48.114;11.442;2022-09-09T14:08:47;19.40;99.90
14122;DHT22;7139;48.114;11.442;2022-09-09T14:11:16;19.30;99.90
14122;DHT22;7139;48.114;11.442;2022-09-09T14:13:43;19.20;99.90
14122;DHT22;7139;48.114;11.442;2022-09-09T14:16:10;19.20;99.90
14122;DHT22;7139;48.114;11.442;2022-09-09T14:18:37;19.20;99.90
14122;DHT22;7139;48.114;11.442;2022-09-09T14:21:04;19.30;99.90
14122;DHT22;7139;48.114;11.442;2022-09-09T14:23:31;19.30;99.90
14122;DHT22;7139;48.114;11.442;2022-09-09T14:25:58;19.20;99.90
14122;DHT22;7139;48.114;11.442;2022-09-09T14:28:26;19.10;99.90
14122;DHT22;7139;48.114;11.442;2022-09-09T14:30:53;19.00;99.90
14122;DHT22;7139;48.114;11.442;2022-09-09T14:33:20;19.10;99.90
14122;DHT22;7139;48.114;11.442;2022-09-09T14:35:47;19.00;99.90
14122;DHT22;7139;48.114;11.442;2022-09-09T14:38:14;19.00;99.90
14122;DHT22;7139;48.114;11.442;2022-09-09T14:40:40;19.00;99.90
14122;DHT22;7139;48.114;11.442;2022-09-09T14:43:11;19.00;99.90
14122;DHT22;7139;48.114;11.442;2022-09-09T14:45:41;19.00;99.90
14122;DHT22;7139;48.114;11.442;2022-09-09T14:48:08;19.00;99.90
14122;DHT22;7139;48.114;11.442;2022-09-09T14:50:35;18.90;99.90
14122;DHT22;7139;48.114;11.442;2022-09-09T14:53:05;18.90;99.90
14122;DHT22;7139;48.114;11.442;2022-09-09T14:55:32;18.80;99.90
14122;DHT22;7139;48.114;11.442;2022-09-09T14:57:59;18.90;99.90
14122;DHT22;7139;48.114;11.442;2022-09-09T15:00:26;18.90;99.90
14122;DHT22;7139;48.114;11.442;2022-09-09T15:02:54;18.80;99.90
14122;DHT22;7139;48.114;11.442;2022-09-09T15:05:22;18.90;99.90
14122;DHT22;7139;48.114;11.442;2022-09-09T15:07:49;18.90;99.90
14122;DHT22;7139;48.114;11.442;2022-09-09T15:10:16;18.90;99.90
14122;DHT22;7139;48.114;11.442;2022-09-09T15:12:44;18.90;99.90
14122;DHT22;7139;48.114;11.442;2022-09-09T15:15:11;19.10;99.90
14122;DHT22;7139;48.114;11.442;2022-09-09T15:17:38;19.10;99.90
14122;DHT22;7139;48.114;11.442;2022-09-09T15:20:07;19.10;99.90
14122;DHT22;7139;48.114;11.442;2022-09-09T15:22:34;19.10;99.90
14122;DHT22;7139;48.114;11.442;2022-09-09T15:25:02;19.10;99.90
14122;DHT22;7139;48.114;11.442;2022-09-09T15:27:29;19.10;99.90
14122;DHT22;7139;48.114;11.442;2022-09-09T15:29:56;19.20;99.90
14122;DHT22;7139;48.114;11.442;2022-09-09T15:32:23;19.30;99.90
14122;DHT22;7139;48.114;11.442;2022-09-09T15:34:50;19.40;99.90
14122;DHT22;7139;48.114;11.442;2022-09-09T15:37:20;19.50;99.90
14122;DHT22;7139;48.114;11.442;2022-09-09T15:39:46;19.80;99.90
14122;DHT22;7139;48.114;11.442;2022-09-09T15:42:14;19.90;99.90
14122;DHT22;7139;48.114;11.442;2022-09-09T15:44:41;20.00;99.90
14122;DHT22;7139;48.114;11.442;2022-09-09T15:47:10;19.90;99.60
14122;DHT22;7139;48.114;11.442;2022-09-09T15:49:38;19.90;99.90
14122;DHT22;7139;48.114;11.442;2022-09-09T15:52:05;19.80;99.90
14122;DHT22;7139;48.114;11.442;2022-09-09T15:54:34;19.60;99.80
14122;DHT22;7139;48.114;11.442;2022-09-09T15:57:06;19.50;99.90
14122;DHT22;7139;48.114;11.442;2022-09-09T15:59:33;19.30;99.90
14122;DHT22;7139;48.114;11.442;2022-09-09T16:02:00;19.20;99.90